Latest Weather Observations for Murrurundi Gap

IDN60801

Issued at 12:35 pm EDT Thursday 27 November 2014 (issued every 30 minutes, with the page automatically refreshed every 10 minutes)

About weather observations | Map of weather stations | Latest weather observations for NSW | Other Formats
Station Details ID: 061392 Name: MURRURUNDI GAP AWS Lat: -31.74 Lon: 150.79 Height: 729.4 m
Data from the previous 72 hours. | See also: Recent months for locations in New South Wales
Date/Time
EDT
Temp
°C
App
Temp
°C
Dew
Point
Rel
Hum
%
Delta-T
°C
Wind Press
QNH
hPa
Press
MSL
hPa
Rain
since 9 am
mm
Dir
 
Spd
km/h
Gust
km/h
Spd
kts
Gust
kts
27/12:30pm 22.0 16.6 13.9 60 4.9 S 35 48 19 26 1020.0 1017.1 0.0
27/12:00pm 20.8 15.9 14.2 66 4.0 S 33 46 18 25 1020.4 1017.4 0.0
27/11:30am 19.4 14.5 13.8 70 3.3 S 32 44 17 24 1020.5 1017.5 0.0
27/11:16am 19.7 14.8 14.3 71 3.2 S 33 44 18 24 1020.6 1017.7 0.0
27/11:00am 19.3 15.6 15.0 76 2.6 S 28 43 15 23 1020.8 1017.9 0.0
27/10:30am 17.7 13.9 14.8 83 1.7 S 28 39 15 21 1020.8 1017.9 0.0
27/10:02am 16.1 12.1 15.1 94 0.6 SSE 30 43 16 23 1021.0 1018.1 0.0
27/10:00am 16.2 12.3 15.6 96 0.4 SSE 30 39 16 21 1021.1 1018.2 0.0
27/09:30am 15.9 12.5 15.7 99 0.1 S 28 37 15 20 1020.8 1017.9 0.0
27/09:07am 16.5 12.8 16.0 97 0.3 S 30 39 16 21 1020.7 1017.8 0.0
27/09:00am 16.7 14.2 16.1 96 0.4 SSE 24 32 13 17 1020.7 1017.8 0.0
27/08:30am 16.7 13.6 16.5 99 0.1 SE 28 37 15 20 1020.4 1017.4 0.0
27/08:18am 16.4 13.5 16.2 99 0.1 SE 26 35 14 19 1020.2 1017.2 0.0
27/08:00am 16.4 13.2 16.2 99 0.1 SE 28 32 15 17 1020.0 1017.1 0.0
27/07:30am 16.0 12.6 15.8 99 0.1 SE 28 32 15 17 1019.8 1016.9 0.0
27/07:00am 15.9 12.5 15.7 99 0.1 SE 28 35 15 19 1019.5 1016.6 0.0
27/06:57am 15.9 12.5 15.7 99 0.1 SE 28 33 15 18 1019.4 1016.5 0.0
27/06:53am 15.9 12.5 15.7 99 0.1 SE 28 33 15 18 1019.3 1016.4 0.0
27/06:30am 15.8 12.7 15.6 99 0.1 SE 26 32 14 17 1019.1 1016.1 0.0
27/06:00am 15.7 11.8 15.5 99 0.1 SE 30 35 16 19 1018.7 1015.7 0.0
27/05:30am 15.7 11.8 15.5 99 0.1 SE 30 37 16 20 1018.4 1015.5 0.0
27/05:00am 15.8 11.5 15.5 98 0.2 SSE 32 39 17 21 1018.0 1015.0 0.0
27/04:32am 16.0 12.1 15.5 97 0.3 SSE 30 41 16 22 1017.7 1014.7 0.0
27/04:30am 16.0 11.7 15.4 96 0.4 SSE 32 41 17 22 1017.6 1014.6 0.0
27/04:00am 16.3 12.0 15.3 94 0.6 SSE 32 37 17 20 1017.5 1014.5 0.0
27/03:30am 16.5 13.0 15.4 93 0.7 SE 28 33 15 18 1017.6 1014.6 0.0
27/03:00am 16.6 12.7 15.5 93 0.7 SSE 30 39 16 21 1017.5 1014.5 0.0
27/02:30am 16.8 12.6 15.7 93 0.7 SSE 32 35 17 19 1017.7 1014.7 0.0
27/02:00am 16.8 13.4 15.7 93 0.7 SSE 28 37 15 20 1017.8 1014.8 0.0
27/01:42am 16.8 13.0 15.7 93 0.7 SSE 30 37 16 20 1017.9 1014.9 0.0
27/01:30am 16.8 12.6 15.7 93 0.7 SSE 32 39 17 21 1018.0 1015.0 0.0
27/01:10am 17.2 12.9 15.9 92 0.8 S 33 46 18 25 1018.1 1015.2 0.0
27/01:00am 17.0 12.7 15.9 93 0.7 S 33 46 18 25 1018.0 1015.0 0.0
27/12:30am 17.5 13.3 15.8 90 1.0 S 32 41 17 22 1018.0 1015.0 0.0
27/12:00am 18.3 14.6 15.9 86 1.5 S 30 35 16 19 1018.1 1015.2 0.0
 
Date/Time
EDT
Temp
°C
App
Temp
°C
Dew
Point
Rel
Hum
%
Delta-T
°C
Wind Press
QNH
hPa
Press
MSL
hPa
Rain
since 9 am
mm
Dir
 
Spd
km/h
Gust
km/h
Spd
kts
Gust
kts
26/11:30pm 18.9 15.5 15.8 82 1.9 S 28 33 15 18 1018.2 1015.3 0.0
26/11:00pm 19.6 16.9 15.7 78 2.4 S 24 32 13 17 1018.2 1015.3 0.0
26/10:30pm 20.5 18.6 15.7 74 3.0 S 20 28 11 15 1018.0 1015.0 0.0
26/10:00pm 20.5 18.7 15.5 73 3.1 SE 19 22 10 12 1017.8 1014.8 0.0
26/09:30pm 21.1 20.0 15.4 70 3.5 SE 15 17 8 9 1017.8 1014.8 0.0
26/09:00pm 20.9 18.8 15.2 70 3.5 SE 20 24 11 13 1017.4 1014.4 0.0
26/08:30pm 21.3 20.0 14.9 67 3.9 SSE 15 19 8 10 1017.1 1014.2 0.0
26/08:00pm 21.8 19.7 14.7 64 4.3 SE 19 20 10 11 1017.1 1014.2 0.0
26/07:30pm 22.1 20.1 15.0 64 4.3 SE 19 20 10 11 1016.8 1013.8 0.0
26/07:00pm 22.2 20.3 15.3 65 4.2 SE 19 20 10 11 1016.6 1013.6 0.0
26/06:30pm 21.9 20.7 16.2 70 3.6 SE 17 20 9 11 1016.4 1013.4 0.0
26/06:00pm 22.6 20.6 15.4 64 4.4 SSE 20 24 11 13 1016.2 1013.2 0.0
26/05:30pm 23.8 22.9 13.6 52 6.1 S 11 17 6 9 1016.1 1013.1 0.0
26/05:00pm 26.8 22.3 8.7 32 10.2 NNW 22 28 12 15 1015.9 1012.9 0.0
26/04:30pm 27.3 24.3 7.7 29 10.9 NNW 13 26 7 14 1016.2 1013.2 0.0
26/04:00pm 27.0 19.0 7.5 29 10.8 NW 39 57 21 31 1015.6 1012.7 0.0
26/03:30pm 26.8 19.3 9.6 34 9.8 NW 39 57 21 31 1015.5 1012.5 0.0
26/03:03pm 25.6 18.1 9.4 36 9.2 NNW 39 57 21 31 1016.1 1013.1 0.0
26/03:00pm 26.0 18.3 10.2 37 9.1 NW 41 57 22 31 1016.5 1013.5 0.0
26/02:48pm 26.6 19.9 11.1 38 9.1 NW 37 56 20 30 1016.4 1013.4 0.0
26/02:30pm 25.4 19.7 12.9 45 7.5 NNW 35 46 19 25 1017.1 1014.2 0.0
26/02:00pm 24.7 18.9 13.9 51 6.6 NNW 37 48 20 26 1017.3 1014.3 0.0
26/01:48pm 25.0 20.0 13.9 50 6.7 NNW 33 52 18 28 1017.3 1014.3 0.0
26/01:30pm 24.4 19.9 14.8 55 5.9 NNW 32 44 17 24 1018.0 1015.0 0.0
26/01:00pm 24.2 20.0 14.6 55 5.9 NNW 30 44 16 24 1018.3 1015.4 0.0
26/12:50pm 24.2 20.7 15.4 58 5.5 NNW 28 37 15 20 1018.7 1015.7 0.0
26/12:30pm 23.1 23.0 15.9 64 4.5 E 11 17 6 9 1019.2 1016.2 0.0
26/12:00pm 21.9 21.3 15.7 68 3.8 E 13 17 7 9 1019.5 1016.6 0.0
26/11:30am 20.1 19.4 15.3 74 2.9 ESE 13 17 7 9 1019.8 1016.9 0.0
26/11:00am 19.8 19.1 15.4 76 2.7 ESE 13 17 7 9 1019.9 1017.0 0.0
26/10:30am 18.9 18.1 15.0 78 2.4 ESE 13 17 7 9 1019.9 1017.0 0.0
26/10:00am 18.8 17.8 15.5 81 2.0 SE 15 19 8 10 1019.9 1017.0 0.0
26/09:30am 16.9 15.1 14.5 86 1.4 ESE 17 19 9 10 1019.9 1017.0 0.0
26/09:00am 15.7 14.3 15.5 99 0.1 SE 17 20 9 11 1019.9 1017.0 0.0
26/08:56am 15.7 14.7 15.5 99 0.1 SE 15 20 8 11 1019.9 1017.0 0.0
26/08:53am 15.7 14.7 15.5 99 0.1 SE 15 19 8 10 1019.8 1016.9 0.0
26/08:30am 15.1 13.5 14.9 99 0.1 ESE 17 20 9 11 1019.9 1017.0 0.0
26/08:00am 14.8 12.5 14.6 99 0.1 ESE 20 24 11 13 1019.6 1016.7 0.0
26/07:30am 14.7 12.3 14.5 99 0.1 SE 20 24 11 13 1019.4 1016.5 0.0
26/07:00am 14.5 12.1 14.3 99 0.1 SE 20 24 11 13 1019.5 1016.6 0.0
26/06:30am 14.4 11.9 14.2 99 0.1 ESE 20 24 11 13 1019.5 1016.6 0.0
26/06:00am 14.4 11.9 14.2 99 0.1 SE 20 24 11 13 1019.2 1016.2 0.0
26/05:30am 14.4 11.9 14.2 99 0.1 SE 20 24 11 13 1019.2 1016.2 0.0
26/05:00am 14.4 11.6 14.2 99 0.1 SE 22 28 12 15 1018.9 1015.9 0.0
26/04:30am 14.4 11.2 14.2 99 0.1 SE 24 28 13 15 1018.7 1015.7 0.0
26/04:00am 14.3 11.0 14.1 99 0.1 SE 24 30 13 16 1018.4 1015.5 0.0
26/03:38am 14.4 11.2 14.2 99 0.1 SE 24 28 13 15 1018.7 1015.7 0.0
26/03:30am 14.4 11.6 14.2 99 0.1 SE 22 28 12 15 1018.5 1015.6 0.0
26/03:22am 14.4 11.9 14.2 99 0.1 SE 20 24 11 13 1018.8 1015.8 0.0
26/03:00am 14.4 11.6 14.2 99 0.1 SE 22 26 12 14 1018.8 1015.8 0.0
26/02:30am 14.5 11.3 14.3 99 0.1 SE 24 28 13 15 1018.9 1015.9 0.0
26/02:00am 14.5 11.3 14.3 99 0.1 SE 24 30 13 16 1019.1 1016.1 0.0
26/01:30am 14.5 11.3 14.3 99 0.1 SE 24 32 13 17 1019.0 1016.0 0.0
26/01:00am 14.7 11.6 14.5 99 0.1 SE 24 30 13 16 1019.4 1016.5 0.0
26/12:30am 14.8 11.7 14.6 99 0.1 SE 24 30 13 16 1019.6 1016.7 0.0
26/12:00am 14.9 11.8 14.6 98 0.2 SE 24 30 13 16 1019.8 1016.9 0.0
 
Date/Time
EDT
Temp
°C
App
Temp
°C
Dew
Point
Rel
Hum
%
Delta-T
°C
Wind Press
QNH
hPa
Press
MSL
hPa
Rain
since 9 am
mm
Dir
 
Spd
km/h
Gust
km/h
Spd
kts
Gust
kts
25/11:31pm 15.3 11.5 14.8 97 0.3 SSE 28 32 15 17 1019.8 1016.9 0.0
25/11:30pm 15.3 11.5 14.8 97 0.3 SSE 28 32 15 17 1019.8 1016.9 0.0
25/11:00pm 15.7 11.6 14.9 95 0.5 SSE 30 35 16 19 1019.9 1017.0 0.0
25/10:30pm 16.3 12.7 15.2 93 0.7 SSE 28 35 15 19 1019.9 1017.0 0.0
25/10:00pm 17.2 13.5 15.0 87 1.3 SSE 28 33 15 18 1019.7 1016.8 0.0
25/09:30pm 18.2 15.2 14.9 81 2.0 S 24 30 13 16 1019.4 1016.5 0.0
25/09:00pm 18.7 14.7 14.2 75 2.7 S 28 35 15 19 1019.1 1016.1 0.0
25/08:30pm 19.3 16.1 11.8 62 4.3 S 20 30 11 16 1018.9 1015.9 0.0
25/08:00pm 20.5 15.5 4.5 35 8.0 SSE 20 26 11 14 1018.7 1015.7 0.0
25/07:30pm 21.2 16.4 4.7 34 8.4 S 19 24 10 13 1018.4 1015.5 0.0
25/07:00pm 21.5 18.9 9.4 46 6.7 SE 13 19 7 10 1018.2 1015.3 0.0
25/06:30pm 22.2 19.6 10.7 48 6.5 SSE 15 20 8 11 1017.7 1014.7 0.0
25/06:00pm 22.9 21.9 13.4 55 5.7 S 11 17 6 9 1017.5 1014.5 0.0
25/05:30pm 23.3 22.4 13.8 55 5.7 S 11 17 6 9 1017.3 1014.3 0.0
25/05:00pm 23.4 22.5 13.6 54 5.9 S 11 17 6 9 1017.5 1014.5 0.0
25/04:30pm 23.5 22.7 13.9 55 5.8 S 11 15 6 8 1017.5 1014.5 0.0
25/04:00pm 23.4 22.6 14.1 56 5.6 S 11 17 6 9 1017.6 1014.6 0.0
25/03:30pm 23.6 22.7 14.9 58 5.3 S 13 19 7 10 1017.7 1014.7 0.0
25/03:00pm 23.1 22.5 14.7 59 5.1 E 11 17 6 9 1017.6 1014.6 0.0
25/02:30pm 23.1 23.2 15.4 62 4.8 E 9 13 5 7 1017.8 1014.8 0.0
25/02:00pm 23.0 23.5 15.6 63 4.6 ESE 7 11 4 6 1018.0 1015.0 0.0
25/01:30pm 22.4 21.7 15.3 64 4.4 SSE 13 19 7 10 1018.1 1015.2 0.0
25/01:00pm 22.5 22.3 15.8 66 4.2 SE 11 17 6 9 1018.1 1015.2 0.0
25/12:30pm 22.3 23.2 16.1 68 3.9 NW 6 13 3 7 1018.3 1015.4 0.0
25/12:00pm 22.3 21.9 16.3 69 3.7 N 13 19 7 10 1018.2 1015.3 0.0
25/11:30am 21.6 21.4 16.8 74 3.0 NNW 13 19 7 10 1018.2 1015.3 0.0
25/11:00am 20.8 20.4 17.2 80 2.3 WNW 15 19 8 10 1018.3 1015.4 0.0
25/10:53am 20.8 20.5 17.4 81 2.2 NW 15 22 8 12 1018.3 1015.4 0.0
25/10:32am 19.8 18.6 17.0 84 1.8 NW 19 24 10 13 1018.2 1015.3 0.0
25/10:31am 20.1 19.0 17.3 84 1.8 NW 19 24 10 13 1018.1 1015.2 0.0
25/10:30am 20.3 19.4 17.7 85 1.7 NW 19 22 10 12 1018.1 1015.2 0.0
25/10:00am 19.5 18.6 18.2 92 0.8 NW 20 26 11 14 1018.0 1015.0 0.0
25/09:30am 18.6 16.8 17.9 96 0.4 NW 24 28 13 15 1017.4 1014.4 0.0
25/09:03am 18.5 17.0 17.7 95 0.5 NW 22 28 12 15 1017.1 1014.2 0.0
25/09:00am 18.5 17.0 17.7 95 0.5 NW 22 28 12 15 1017.1 1014.2 4.6
25/08:30am 18.7 18.8 17.4 92 0.8 WNW 13 19 7 10 1016.7 1013.7 4.6
25/08:00am 18.8 17.8 16.6 87 1.4 NNE 17 22 9 12 1016.2 1013.2 4.6
25/07:38am 18.1 17.3 17.1 94 0.6 N 17 32 9 17 1016.1 1013.1 4.6
25/07:30am 18.0 16.8 17.0 94 0.6 N 19 28 10 15 1016.0 1013.0 4.4
25/07:25am 18.0 16.7 16.7 92 0.8 N 19 24 10 13 1016.1 1013.1 4.4
25/07:00am 18.2 18.1 16.9 92 0.8 N 13 17 7 9 1016.4 1013.4 3.6
25/06:30am 18.3 18.1 17.7 96 0.4 N 15 20 8 11 1016.3 1013.3 3.2
25/06:00am 18.6 18.1 17.8 95 0.5 NNW 17 20 9 11 1016.1 1013.1 3.0
25/05:30am 18.7 19.0 17.9 95 0.5 NNW 13 15 7 8 1015.4 1012.4 2.6
25/05:00am 18.9 18.7 17.7 93 0.8 NW 15 17 8 9 1015.3 1012.3 2.6
25/04:30am 19.2 19.7 17.5 90 1.1 WNW 11 15 6 8 1014.7 1011.7 2.6
25/04:00am 19.5 18.7 17.1 86 1.5 N 17 20 9 11 1014.7 1011.7 2.6
25/03:30am 19.6 19.2 17.2 86 1.5 NNW 15 17 8 9 1014.6 1011.6 2.6
25/03:00am 20.0 18.9 17.2 84 1.8 NNW 19 22 10 12 1015.0 1012.0 2.4
25/02:30am 20.0 19.8 17.6 86 1.5 NNW 15 20 8 11 1014.9 1011.9 2.4
25/02:00am 20.2 18.9 17.2 83 1.9 NNW 20 26 11 14 1015.1 1012.1 2.4
25/01:30am 20.0 20.3 17.8 87 1.4 NNW 13 17 7 9 1015.4 1012.4 2.4
25/01:00am 20.2 20.0 17.6 85 1.6 NW 15 22 8 12 1015.6 1012.7 2.4
25/12:30am 19.9 21.6 18.0 89 1.2 NNW 6 13 3 7 1016.1 1013.1 2.4
25/12:00am 19.6 20.1 18.3 92 0.8 WNW 13 15 7 8 1015.9 1012.9 2.4
 
Date/Time
EDT
Temp
°C
App
Temp
°C
Dew
Point
Rel
Hum
%
Delta-T
°C
Wind Press
QNH
hPa
Press
MSL
hPa
Rain
since 9 am
mm
Dir
 
Spd
km/h
Gust
km/h
Spd
kts
Gust
kts
24/11:30pm 19.5 19.6 18.3 93 0.8 NW 15 20 8 11 1016.8 1013.8 2.4
24/11:00pm 20.1 18.3 17.9 87 1.4 NNW 24 28 13 15 1016.6 1013.6 2.2
24/10:30pm 20.2 18.4 17.8 86 1.5 NNW 24 28 13 15 1016.2 1013.2 2.2
24/10:00pm 20.3 18.5 17.9 86 1.5 NNW 24 32 13 17 1016.0 1013.0 1.8
24/09:30pm 21.3 18.8 17.1 77 2.7 NNW 26 32 14 17 1015.6 1012.7 1.4
24/09:00pm 21.6 19.4 17.0 75 2.9 NNW 24 32 13 17 1014.9 1011.9 1.4
24/08:30pm 22.2 19.5 16.7 71 3.5 NW 26 35 14 19 1014.4 1011.3 1.4
24/08:00pm 22.7 20.6 16.3 67 4.0 NNW 22 30 12 16 1013.6 1010.6 1.4
24/07:30pm 21.8 20.5 17.2 75 2.9 N 20 28 11 15 1013.4 1010.4 1.4
24/07:23pm 21.5 20.3 17.5 78 2.5 NNW 20 28 11 15 1013.5 1010.5 1.4
24/07:04pm 20.9 17.2 16.9 78 2.5 NNW 32 46 17 25 1013.6 1010.6 1.2
24/07:00pm 21.8 17.3 16.5 72 3.3 NW 35 52 19 28 1013.3 1010.3 0.4
24/06:30pm 25.1 18.4 14.6 52 6.5 NW 43 61 23 33 1012.5 1009.5 0.0
24/06:24pm 26.7 21.1 13.4 43 8.1 NW 35 57 19 31 1012.0 1009.0 0.0
24/06:18pm 26.7 21.7 13.4 43 8.1 NW 32 41 17 22 1011.8 1008.7 0.0
24/06:00pm 28.4 18.9 13.5 40 9.1 NW 56 76 30 41 1010.5 1007.4 0.0
24/05:30pm 32.7 23.4 11.8 28 12.7 NW 52 70 28 38 1009.7 1006.7 0.0
24/05:00pm 33.4 23.6 11.3 26 13.4 NW 54 83 29 45 1008.3 1005.3 0.0
24/04:56pm 34.2 24.4 11.4 25 13.8 NW 54 78 29 42 1008.6 1005.5 0.0
24/04:48pm 34.0 23.9 11.8 26 13.5 NW 56 69 30 37 1008.5 1005.4 0.0
24/04:44pm 33.4 29.0 12.9 28 12.7 NNW 28 50 15 27 1009.6 1006.6 0.0
24/04:30pm 31.7 29.1 13.9 34 11.1 N 20 30 11 16 1010.6 1007.5 0.0
24/04:00pm 30.9 26.8 13.7 35 10.7 N 28 41 15 22 1011.1 1008.1 0.0
24/03:30pm 30.7 28.3 14.3 36 10.2 N 20 32 11 17 1012.1 1009.1 0.0
24/03:00pm 26.5 19.8 15.2 49 7.1 NNE 44 72 24 39 1012.1 1009.1 0.0
24/02:30pm 27.6 22.5 14.9 45 7.9 NNE 35 65 19 35 1012.0 1009.0 0.0
24/02:22pm 30.5 25.3 13.3 35 10.6 NNE 33 65 18 35 1012.3 1009.3 0.0
24/02:01pm 33.8 27.3 11.6 26 13.5 NNW 37 56 20 30 1012.1 1009.1 0.0
24/02:00pm 34.1 27.3 11.9 26 13.6 NNW 39 56 21 30 1012.0 1009.0 0.0
24/01:30pm 34.7 27.7 12.4 26 13.7 NNW 41 63 22 34 1013.0 1009.9 0.0
24/01:00pm 33.2 25.7 12.2 28 12.8 NNW 43 61 23 33 1013.6 1010.6 0.0
24/12:47pm 33.0 25.6 12.6 29 12.5 NNW 43 61 23 33 1014.4 1011.3 0.0

Other Formats:

Comma delimited format used in spreadsheet applications
http://www.bom.gov.au/fwo/IDN60801/IDN60801.95747.axf

JavaScript Object Notation format (JSON) in row-major order
http://www.bom.gov.au/fwo/IDN60801/IDN60801.95747.json